McGuffey, OH (45859)

6:39 AM EDT on September 30, 2014 (GMT -0400)
Ada | Change Station
CLOSE
Current Station
Personal Weather Station
Location: Ada, OH
Elevation: 912 ft
Nearby Weather Stations

Elev 912 ft 40.82 °N, 83.86 °W | Updated 6 seconds ago

Overcast
Overcast
58.3 °F
Feels Like 58.3 °F
N
0.0
Wind Variable Wind from NW
Gusts 4.0 mph

Today
High -- | Low -- °F
--% Chance of Precip.
Yesterday
High -- | Low -- °F
Precip. -- in
7:30 AM 7:18 PM
Waxing Crescent, 35% visible
Pressure 29.93 in
Visibility 4.0 miles
Clouds Mostly Cloudy 900 ft
Overcast 6000 ft
Dew Point 57 °F
Humidity 95%
Rainfall 0.09 in
Snow Depth Not available.
UV 0 out of 12
Pollen 3.50 out of 12
Air Quality Not available.
Flu Activity Not available.
SPECI KAOH 301012Z AUTO 32013G17KT 4SM BR BKN009 OVC060 16/14 A2993 RMK AO2 LTG DSNT N AND NE T01610139

More Conditions Fewer Conditions

Pressure 29.93 in
Visibility 4.0 miles
Clouds Mostly Cloudy 900 ft
Overcast 6000 ft
Dew Point 57 °F
Humidity 95%
Rainfall 0.09 in
Snow Depth Not available.
UV 0 out of 12
Pollen 3.50 out of 12
Air Quality Not available.
Flu Activity Not available.
SPECI KAOH 301012Z AUTO 32013G17KT 4SM BR BKN009 OVC060 16/14 A2993 RMK AO2 LTG DSNT N AND NE T01610139

More Conditions Fewer Conditions

10-Day Weather Forecast

Almanac

Astronomy

Sep. 30, 2014 Rise Set
Actual Time 7:30 AM EDT 7:18 PM EDT
Civil Twilight 7:03 AM EDT 7:46 PM EDT
Nautical Twilight 6:31 AM EDT 8:17 PM EDT
Astronomical Twilight 5:59 AM EDT 8:49 PM EDT
Moon 1:39 PM EDT 11:46 PM EDT
Length of Visible Light 12h 42m
Length of Day
11h 48m
Tomorrow will be 2m 40s shorter.
Waxing Crescent, 35% of the Moon is Illuminated
Today
Waxing Crescent
Oct 1
First Quarter
Oct 8
Full
Oct 15
Last Quarter
Oct 23
New

Today's Extremes

State Highs State Lows

Community

WunderPhotos

Upload Photos

1,757,609 photos uploaded!

WunderBlogs® & News

Nearby

Snow Depth

Station Depth Elevation
No new snow has been reported.

Earthquake Activity

City Distance Mag. Time & Date
No recent earthquake activity has been reported nearby.
Minimum magnitude displayed is 2.5.

Coastal Water Temperatures

Place Temperature
No Stations Reporting

Nearby Weather Stations